Time;durP1;ratioP1;P1;durP2;ratioP2;P2;SDS_P1;SDS_P2;PMS_P1;PMS_P2;Temp;Humidity;BMP_temperature;BMP_pressure;BME280_temperature;BME280_humidity;BME280_pressure;Samples;Min_cycle;Max_cycle;Signal;HPM_P1;HPM_P2
2022/11/23 00:01:28;;;;;;;67.90;28.50;;;;;;;0.44;100.00;99667.81;5058519;28;20051;-82
2022/11/23 00:03:56;;;;;;;68.40;27.90;;;;;;;0.51;100.00;99659.16;5066748;28;20045;-83
2022/11/23 00:06:24;;;;;;;70.30;28.07;;;;;;;0.53;100.00;99666.97;5058505;28;20521;-83
2022/11/23 00:08:52;;;;;;;69.77;28.57;;;;;;;0.54;100.00;99656.56;5058909;28;20044;-83
2022/11/23 00:11:20;;;;;;;78.27;29.77;;;;;;;0.58;100.00;99657.44;5039351;28;20040;-83
2022/11/23 00:13:47;;;;;;;59.17;27.13;;;;;;;0.52;100.00;99647.03;5039824;28;20040;-83
2022/11/23 00:16:17;;;;;;;70.47;27.13;;;;;;;0.52;100.00;99636.66;5055518;28;20044;-83
2022/11/23 00:18:44;;;;;;;63.90;27.83;;;;;;;0.53;100.00;99644.44;5059158;28;20149;-83
2022/11/23 00:21:14;;;;;;;77.17;31.73;;;;;;;0.67;100.00;99641.00;5077384;28;20048;-83
2022/11/23 00:23:40;;;;;;;78.57;29.57;;;;;;;0.54;100.00;99637.50;5081976;28;20051;-83
2022/11/23 00:26:07;;;;;;;67.40;27.73;;;;;;;0.56;100.00;99641.84;5056293;28;20044;-82
2022/11/23 00:28:37;;;;;;;81.87;29.37;;;;;;;0.55;100.00;99640.13;5058576;28;20040;-83
2022/11/23 00:31:06;;;;;;;79.27;30.43;;;;;;;0.45;100.00;99650.47;5073465;28;20050;-83
2022/11/23 00:33:33;;;;;;;70.67;27.77;;;;;;;0.46;100.00;99652.22;5073290;28;20044;-82
2022/11/23 00:36:11;;;;;;;79.13;29.90;;;;;;;0.50;100.00;99647.00;5074890;28;20040;-83
2022/11/23 00:38:38;;;;;;;81.40;30.87;;;;;;;0.53;100.00;99647.03;5076117;28;20044;-82
2022/11/23 00:41:08;;;;;;;72.30;29.80;;;;;;;0.49;100.00;99653.06;5075468;28;20040;-83
2022/11/23 00:43:35;;;;;;;72.30;27.70;;;;;;;0.62;100.00;99655.75;5048852;28;20773;-84
2022/11/23 00:46:07;;;;;;;73.73;30.70;;;;;;;0.49;100.00;99671.25;5054910;28;20040;-82
2022/11/23 00:48:33;;;;;;;68.27;27.43;;;;;;;0.48;100.00;99676.47;5071954;28;20512;-83
2022/11/23 00:51:02;;;;;;;75.07;28.27;;;;;;;0.49;100.00;99673.88;5069531;28;20036;-83
2022/11/23 00:53:28;;;;;;;72.80;29.10;;;;;;;0.52;100.00;99680.81;5060088;28;20051;-83
2022/11/23 00:55:55;;;;;;;76.87;30.03;;;;;;;0.51;100.00;99677.38;5059584;28;20040;-83
2022/11/23 00:58:22;;;;;;;64.37;27.23;;;;;;;0.49;100.00;99681.66;5039840;28;20044;-82
2022/11/23 01:00:49;;;;;;;71.40;28.77;;;;;;;0.46;100.00;99684.25;5040588;28;20090;-83
2022/11/23 01:03:16;;;;;;;69.70;28.27;;;;;;;0.39;100.00;99682.47;5074927;28;20420;-82
2022/11/23 01:05:42;;;;;;;70.37;28.03;;;;;;;0.55;100.00;99679.09;5057022;28;20045;-83
2022/11/23 01:08:09;;;;;;;65.67;28.30;;;;;;;0.51;100.00;99679.97;5074199;28;20409;-84
2022/11/23 01:10:36;;;;;;;64.43;26.50;;;;;;;0.53;100.00;99677.38;5055436;28;20051;-82
2022/11/23 01:13:02;;;;;;;75.57;29.67;;;;;;;0.50;100.00;99679.94;5039588;28;20052;-82
2022/11/23 01:15:29;;;;;;;63.00;27.37;;;;;;;0.46;100.00;99680.78;5055644;28;20044;-83
2022/11/23 01:17:56;;;;;;;64.20;26.13;;;;;;;0.38;100.00;99685.09;5067686;28;20041;-83
2022/11/23 01:20:22;;;;;;;68.43;28.20;;;;;;;0.37;100.00;99686.81;5044454;28;20047;-82
2022/11/23 01:22:51;;;;;;;64.23;26.30;;;;;;;0.31;100.00;99680.72;5075768;28;20054;-82
2022/11/23 01:25:18;;;;;;;63.40;29.23;;;;;;;0.45;100.00;99681.66;5058281;28;20513;-82
2022/11/23 01:27:44;;;;;;;69.13;27.40;;;;;;;0.45;100.00;99681.66;5055603;28;20678;-84
2022/11/23 01:30:11;;;;;;;62.50;29.50;;;;;;;0.53;100.00;99678.22;5066713;28;20051;-82
2022/11/23 01:32:38;;;;;;;70.50;29.90;;;;;;;0.70;100.00;99678.28;5074743;28;20122;-82
2022/11/23 01:35:05;;;;;;;65.63;26.13;;;;;;;0.53;100.00;99679.97;5060172;28;20047;-83
2022/11/23 01:37:32;;;;;;;72.40;28.53;;;;;;;0.49;100.00;99686.84;5058618;28;20048;-83
2022/11/23 01:39:58;;;;;;;69.07;27.53;;;;;;;0.46;100.00;99686.84;5072154;28;20130;-82
2022/11/23 01:42:58;;;;;;;74.00;30.97;;;;;;;0.42;100.00;99685.13;5058195;28;20047;-84
2022/11/23 01:45:43;;;;;;;73.23;29.47;;;;;;;0.50;100.00;99687.72;5079579;28;20048;-82
2022/11/23 01:48:17;;;;;;;63.80;29.38;;;;;;;0.47;100.00;99696.38;5069317;28;20036;-82
2022/11/23 01:50:45;;;;;;;72.32;30.88;;;;;;;0.54;100.00;99692.09;5070411;28;20043;-82
2022/11/23 01:53:12;;;;;;;75.80;31.47;;;;;;;0.49;100.00;99689.47;5068910;28;20039;-83
2022/11/23 01:55:39;;;;;;;71.87;29.27;;;;;;;0.51;100.00;99697.28;5039075;28;21152;-82
2022/11/23 01:58:07;;;;;;;67.80;29.53;;;;;;;0.46;100.00;99696.38;5072321;28;20037;-82
2022/11/23 02:00:33;;;;;;;72.67;29.70;;;;;;;0.51;100.00;99697.28;5063121;28;20035;-82
2022/11/23 02:03:00;;;;;;;67.97;29.67;;;;;;;0.54;100.00;99694.69;5072189;28;20036;-82
2022/11/23 02:05:34;;;;;;;73.90;29.50;;;;;;;0.63;100.00;99688.66;5049326;28;20050;-82
2022/11/23 02:08:02;;;;;;;76.03;30.65;;;;;;;0.62;100.00;99690.38;5057544;28;20089;-82
2022/11/23 02:10:30;;;;;;;66.57;27.33;;;;;;;0.46;100.00;99693.78;5072389;28;20520;-83
2022/11/23 02:13:04;;;;;;;77.90;29.17;;;;;;;0.48;100.00;99700.72;5075455;28;20047;-83
2022/11/23 02:15:31;;;;;;;70.68;30.13;;;;;;;0.58;100.00;99691.22;5060803;28;20404;-82
2022/11/23 02:17:58;;;;;;;79.77;31.97;;;;;;;0.71;100.00;99695.63;5072229;28;20032;-82
2022/11/23 02:20:25;;;;;;;77.17;30.90;;;;;;;0.74;100.00;99707.75;5045894;28;20101;-82
2022/11/23 02:23:15;;;;;;;73.37;31.23;;;;;;;0.59;100.00;99698.19;5157909;22;21870;-86
2022/11/23 02:25:42;;;;;;;73.63;29.83;;;;;;;0.49;100.00;99699.84;5047151;28;20071;-85
2022/11/23 02:28:22;;;;;;;74.20;31.30;;;;;;;0.55;100.00;99699.03;5036780;28;20041;-85
2022/11/23 02:30:50;;;;;;;72.40;29.27;;;;;;;0.65;100.00;99697.31;5052466;28;20501;-84
2022/11/23 02:33:17;;;;;;;76.30;31.03;;;;;;;0.68;100.00;99698.22;5048977;28;20085;-83
2022/11/23 02:35:49;;;;;;;74.63;30.23;;;;;;;0.68;100.00;99693.03;5042187;28;20083;-85
2022/11/23 02:38:16;;;;;;;72.20;28.17;;;;;;;0.75;100.00;99688.69;5036844;28;20048;-85
2022/11/23 02:40:43;;;;;;;68.50;27.33;;;;;;;0.54;100.00;99685.16;5050115;28;20048;-83
2022/11/23 02:43:10;;;;;;;73.47;29.60;;;;;;;0.65;100.00;99690.38;5035094;28;20044;-85
2022/11/23 02:45:57;;;;;;;68.23;27.10;;;;;;;0.58;100.00;99693.81;5055913;28;20524;-82
2022/11/23 02:48:29;;;;;;;78.97;30.97;;;;;;;0.71;100.00;99698.22;5063875;28;20035;-85
2022/11/23 02:50:55;;;;;;;72.50;30.13;;;;;;;0.60;100.00;99688.66;5054223;28;20067;-83
2022/11/23 02:53:22;;;;;;;66.17;28.40;;;;;;;0.44;100.00;99686.00;5052059;28;20532;-83
2022/11/23 02:55:49;;;;;;;79.50;31.23;;;;;;;0.51;100.00;99686.88;5035411;28;20656;-85
2022/11/23 02:58:15;;;;;;;64.57;28.33;;;;;;;0.46;100.00;99684.25;5043345;28;20032;-82
2022/11/23 03:00:42;;;;;;;74.20;29.57;;;;;;;0.34;100.00;99686.81;5036586;28;20040;-80
2022/11/23 03:03:09;;;;;;;71.37;27.33;;;;;;;0.48;100.00;99702.44;5055280;28;20068;-82
2022/11/23 03:05:35;;;;;;;64.90;28.07;;;;;;;0.40;100.00;99699.81;5036652;28;20037;-83
2022/11/23 03:08:02;;;;;;;74.13;29.17;;;;;;;0.53;100.00;99695.56;5019941;28;20098;-81
2022/11/23 03:10:29;;;;;;;73.20;29.77;;;;;;;0.42;100.00;99689.41;5036420;28;20044;-80
2022/11/23 03:12:55;;;;;;;77.07;31.70;;;;;;;0.55;100.00;99693.81;5050613;28;20037;-79
2022/11/23 03:15:24;;;;;;;71.27;29.43;;;;;;;0.60;100.00;99699.06;5062962;28;20045;-81
2022/11/23 03:17:51;;;;;;;68.80;30.30;;;;;;;0.59;100.00;99702.50;5052395;28;20497;-79
2022/11/23 03:20:18;;;;;;;64.47;29.17;;;;;;;0.54;100.00;99700.75;5072836;28;20426;-82
2022/11/23 03:22:45;;;;;;;77.47;31.50;;;;;;;0.67;100.00;99690.38;5030422;28;20036;-81
2022/11/23 03:25:13;;;;;;;63.53;27.40;;;;;;;0.54;100.00;99687.75;5045603;28;20152;-80
2022/11/23 03:27:39;;;;;;;65.43;27.23;;;;;;;0.55;100.00;99692.09;5068825;28;20543;-81
2022/11/23 03:30:07;;;;;;;73.57;31.47;;;;;;;0.67;100.00;99698.19;5067904;28;20037;-82
2022/11/23 03:32:34;;;;;;;73.57;31.00;;;;;;;0.53;100.00;99695.56;5037590;28;20493;-79
2022/11/23 03:35:02;;;;;;;73.97;30.13;;;;;;;0.64;100.00;99695.59;5040557;28;20047;-81
2022/11/23 03:37:29;;;;;;;66.53;27.37;;;;;;;0.61;100.00;99686.06;5035981;28;20110;-82
2022/11/23 03:39:55;;;;;;;66.70;28.30;;;;;;;0.49;100.00;99689.47;5050350;28;20070;-82
2022/11/23 03:42:22;;;;;;;67.87;30.27;;;;;;;0.63;100.00;99691.25;5025596;28;20076;-82
2022/11/23 03:44:49;;;;;;;69.13;29.90;;;;;;;0.53;100.00;99693.81;5043617;28;20045;-81
2022/11/23 03:47:15;;;;;;;71.80;29.67;;;;;;;0.55;100.00;99697.28;5051980;28;20401;-80
2022/11/23 03:49:42;;;;;;;69.07;28.63;;;;;;;0.51;100.00;99692.97;5070375;28;20040;-80
2022/11/23 03:52:08;;;;;;;63.67;29.03;;;;;;;0.62;100.00;99692.13;5027426;28;20064;-82
2022/11/23 03:54:35;;;;;;;75.33;29.77;;;;;;;0.63;100.00;99688.66;5065325;28;20075;-81
2022/11/23 03:57:02;;;;;;;77.87;30.57;;;;;;;0.60;100.00;99697.31;5052160;28;20037;-79
2022/11/23 03:59:28;;;;;;;70.73;28.23;;;;;;;0.62;100.00;99698.19;5084900;28;20037;-80
2022/11/23 04:01:55;;;;;;;64.17;28.63;;;;;;;0.57;100.00;99695.56;5051821;28;20040;-81
2022/11/23 04:04:22;;;;;;;75.13;27.63;;;;;;;0.47;100.00;99695.50;5041484;28;20405;-79
2022/11/23 04:06:49;;;;;;;60.10;26.93;;;;;;;0.54;100.00;99697.28;5039859;28;20505;-80
2022/11/23 04:09:16;;;;;;;66.10;27.30;;;;;;;0.54;100.00;99695.56;5041888;28;20082;-80
2022/11/23 04:11:43;;;;;;;63.93;28.63;;;;;;;0.49;100.00;99692.06;5050387;28;20044;-81
2022/11/23 04:14:09;;;;;;;64.60;27.53;;;;;;;0.55;100.00;99694.69;5020703;28;20489;-81
2022/11/23 04:16:36;;;;;;;67.67;28.17;;;;;;;0.63;100.00;99691.25;5052651;28;20102;-80
2022/11/23 04:19:03;;;;;;;62.87;26.77;;;;;;;0.55;100.00;99697.28;5066711;28;20501;-80
2022/11/23 04:21:29;;;;;;;61.27;28.43;;;;;;;0.55;100.00;99691.22;5057153;28;20044;-81
2022/11/23 04:23:56;;;;;;;67.33;28.90;;;;;;;0.60;100.00;99699.91;5069692;28;20484;-81
2022/11/23 04:26:22;;;;;;;64.40;27.10;;;;;;;0.66;100.00;99699.06;5052175;28;20120;-80
2022/11/23 04:28:49;;;;;;;67.73;27.83;;;;;;;0.69;100.00;99692.16;5035860;28;20477;-81
2022/11/23 04:31:16;;;;;;;63.40;28.47;;;;;;;0.71;100.00;99697.34;5060910;28;20287;-81
2022/11/23 04:33:42;;;;;;;60.00;27.73;;;;;;;0.57;100.00;99694.69;5033034;28;20496;-81
2022/11/23 04:36:09;;;;;;;56.80;26.07;;;;;;;0.67;100.00;99696.47;5035134;28;20128;-80
2022/11/23 04:38:35;;;;;;;69.70;28.83;;;;;;;0.63;100.00;99699.91;5036560;28;20091;-80
2022/11/23 04:41:02;;;;;;;65.67;29.73;;;;;;;0.70;100.00;99699.09;5052132;28;20041;-80
2022/11/23 04:43:30;;;;;;;63.27;27.33;;;;;;;0.60;100.00;99694.72;5052208;28;20032;-80
2022/11/23 04:45:57;;;;;;;64.97;28.23;;;;;;;0.59;100.00;99694.69;5067836;28;20090;-79
2022/11/23 04:48:23;;;;;;;56.37;27.10;;;;;;;0.61;100.00;99698.19;5017082;28;20087;-80
2022/11/23 04:50:50;;;;;;;70.10;27.90;;;;;;;0.53;100.00;99696.41;5009759;28;20165;-79
2022/11/23 04:53:21;;;;;;;71.33;28.00;;;;;;;0.71;100.00;99698.22;5057396;28;20040;-80
2022/11/23 04:55:47;;;;;;;64.60;28.37;;;;;;;0.57;100.00;99700.75;5056026;28;20052;-81
2022/11/23 04:58:14;;;;;;;67.03;28.83;;;;;;;0.52;100.00;99701.63;5040504;28;20494;-81
2022/11/23 05:00:41;;;;;;;59.00;28.27;;;;;;;0.59;100.00;99697.28;5038756;28;20055;-81
2022/11/23 05:03:26;;;;;;;69.47;29.33;;;;;;;0.60;100.00;99696.47;5039252;28;20578;-81
2022/11/23 05:05:52;;;;;;;63.50;27.80;;;;;;;0.66;100.00;99702.53;5055446;28;20036;-80
2022/11/23 05:08:19;;;;;;;60.67;27.83;;;;;;;0.67;100.00;99700.78;5022260;28;20045;-80
2022/11/23 05:10:46;;;;;;;65.07;27.40;;;;;;;0.60;100.00;99715.50;5038693;28;20040;-83
2022/11/23 05:13:12;;;;;;;70.43;29.13;;;;;;;0.73;100.00;99706.88;5039681;28;20125;-84
2022/11/23 05:15:39;;;;;;;63.00;31.33;;;;;;;0.59;100.00;99708.59;5072657;28;20043;-82
2022/11/23 05:18:06;;;;;;;71.47;30.00;;;;;;;0.55;100.00;99707.69;5056314;28;20489;-82
2022/11/23 05:20:33;;;;;;;63.40;29.23;;;;;;;0.54;100.00;99705.09;5055607;28;20041;-83
2022/11/23 05:23:00;;;;;;;70.17;30.77;;;;;;;0.57;100.00;99703.34;5038672;28;20485;-83
2022/11/23 05:25:26;;;;;;;69.10;30.30;;;;;;;0.53;100.00;99699.03;5041196;28;20047;-82
2022/11/23 05:27:53;;;;;;;72.73;30.03;;;;;;;0.60;100.00;99710.31;5023459;28;20052;-83
2022/11/23 05:30:20;;;;;;;71.73;30.30;;;;;;;0.53;100.00;99706.81;5055638;28;20098;-82
2022/11/23 05:32:47;;;;;;;67.13;28.23;;;;;;;0.67;100.00;99712.06;5065110;28;20455;-81
2022/11/23 05:35:13;;;;;;;70.60;27.93;;;;;;;0.66;100.00;99717.25;5036526;28;20079;-79
2022/11/23 05:37:40;;;;;;;65.40;28.33;;;;;;;0.57;100.00;99711.16;5055345;28;20040;-80
2022/11/23 05:40:08;;;;;;;70.03;29.60;;;;;;;0.65;100.00;99716.38;5038880;28;20409;-80
2022/11/23 05:42:34;;;;;;;71.93;30.93;;;;;;;0.56;100.00;99716.34;5072274;28;20041;-81
2022/11/23 05:45:02;;;;;;;66.43;27.60;;;;;;;0.61;100.00;99711.19;5056742;28;20131;-80
2022/11/23 05:47:35;;;;;;;64.25;29.00;;;;;;;0.54;100.00;99711.16;5041597;28;20068;-81
2022/11/23 05:50:02;;;;;;;68.70;28.33;;;;;;;0.55;100.00;99712.88;5039252;28;20195;-80
2022/11/23 05:52:29;;;;;;;66.10;29.97;;;;;;;0.52;100.00;99710.28;5038745;28;20568;-79
2022/11/23 05:54:55;;;;;;;68.23;29.77;;;;;;;0.49;100.00;99714.56;5057619;28;20044;-79
2022/11/23 05:57:22;;;;;;;67.87;29.83;;;;;;;0.59;100.00;99716.38;5057567;28;20044;-80
2022/11/23 05:59:49;;;;;;;69.53;29.30;;;;;;;0.63;100.00;99718.13;5056610;28;20738;-80
2022/11/23 06:02:15;;;;;;;68.80;30.97;;;;;;;0.49;100.00;99718.03;5055165;28;20070;-80
2022/11/23 06:04:42;;;;;;;68.53;31.20;;;;;;;0.67;100.00;99714.66;5056612;28;20048;-82
2022/11/23 06:07:08;;;;;;;69.53;29.60;;;;;;;0.67;100.00;99711.19;5036561;28;20044;-81
2022/11/23 06:09:35;;;;;;;58.20;27.97;;;;;;;0.48;100.00;99708.50;5055278;28;20059;-82
2022/11/23 06:12:02;;;;;;;60.57;28.37;;;;;;;0.63;100.00;99719.84;5056625;28;20110;-79
2022/11/23 06:14:29;;;;;;;69.87;31.90;;;;;;;0.46;100.00;99717.16;5022082;28;20094;-81
2022/11/23 06:16:55;;;;;;;64.47;29.40;;;;;;;0.53;100.00;99711.16;5056661;28;20044;-80
2022/11/23 06:19:22;;;;;;;68.73;30.53;;;;;;;0.54;100.00;99721.53;5072708;28;20051;-81
2022/11/23 06:21:49;;;;;;;62.90;28.80;;;;;;;0.50;100.00;99718.91;5057866;28;20051;-81
2022/11/23 06:24:16;;;;;;;65.87;27.97;;;;;;;0.53;100.00;99717.22;5036127;28;20106;-81
2022/11/23 06:26:42;;;;;;;69.60;29.70;;;;;;;0.57;100.00;99716.34;5067237;28;20040;-80
2022/11/23 06:29:09;;;;;;;63.47;27.77;;;;;;;0.53;100.00;99717.22;5055575;28;20128;-82
2022/11/23 06:31:36;;;;;;;63.33;28.47;;;;;;;0.62;100.00;99718.97;5045171;28;20516;-82
2022/11/23 06:34:02;;;;;;;61.03;26.83;;;;;;;0.55;100.00;99718.09;5059719;28;20048;-80
2022/11/23 06:36:29;;;;;;;62.60;27.77;;;;;;;0.52;100.00;99727.59;5057673;28;20048;-82
2022/11/23 06:38:56;;;;;;;65.67;29.10;;;;;;;0.69;100.00;99722.47;5056046;28;20052;-82
2022/11/23 06:41:23;;;;;;;66.67;28.83;;;;;;;0.63;100.00;99723.31;5036876;28;20099;-80
2022/11/23 06:43:56;;;;;;;65.63;29.42;;;;;;;0.54;100.00;99737.13;5057244;28;20405;-81
2022/11/23 06:46:23;;;;;;;71.30;28.50;;;;;;;0.60;100.00;99730.25;5057256;28;20048;-81
2022/11/23 06:48:49;;;;;;;62.93;28.20;;;;;;;0.54;100.00;99731.94;5034435;28;20033;-79
2022/11/23 06:51:16;;;;;;;65.70;29.40;;;;;;;0.72;100.00;99731.16;5067199;28;20043;-81
2022/11/23 06:53:42;;;;;;;65.33;27.87;;;;;;;0.67;100.00;99727.66;5038118;28;20078;-81
2022/11/23 06:56:09;;;;;;;62.83;27.57;;;;;;;0.54;100.00;99742.34;5051953;28;20075;-81
2022/11/23 06:58:36;;;;;;;63.10;26.80;;;;;;;0.61;100.00;99731.97;5032758;28;20045;-83
2022/11/23 07:01:05;;;;;;;65.83;27.53;;;;;;;0.61;100.00;99732.84;5020620;28;20044;-83
2022/11/23 07:03:32;;;;;;;60.07;27.33;;;;;;;0.51;100.00;99739.72;5052392;28;20037;-81
2022/11/23 07:05:58;;;;;;;69.20;30.23;;;;;;;0.64;100.00;99738.03;5026462;28;20416;-80
2022/11/23 07:08:26;;;;;;;63.53;26.90;;;;;;;0.59;100.00;99731.97;5044675;28;20051;-81
2022/11/23 07:10:52;;;;;;;58.27;28.80;;;;;;;0.59;100.00;99733.69;5036160;28;20114;-82
2022/11/23 07:13:19;;;;;;;62.93;28.23;;;;;;;0.54;100.00;99737.13;5053513;28;20041;-81
2022/11/23 07:15:46;;;;;;;69.23;29.13;;;;;;;0.65;100.00;99738.91;5073132;28;20490;-81
2022/11/23 07:18:12;;;;;;;59.93;27.53;;;;;;;0.59;100.00;99739.78;5060110;28;20098;-81
2022/11/23 07:20:39;;;;;;;69.63;31.30;;;;;;;0.62;100.00;99747.56;5054096;28;20045;-84
2022/11/23 07:23:07;;;;;;;61.70;29.23;;;;;;;0.72;100.00;99754.53;5048444;28;20093;-83
2022/11/23 07:25:35;;;;;;;63.37;29.17;;;;;;;0.88;100.00;99778.88;5053043;28;20127;-83
2022/11/23 07:28:04;;;;;;;68.03;29.97;;;;;;;0.54;100.00;99763.13;5050682;28;20093;-84
2022/11/23 07:30:32;;;;;;;58.93;29.43;;;;;;;0.69;100.00;99772.75;5053059;28;20036;-82
2022/11/23 07:33:03;;;;;;;62.83;29.27;;;;;;;0.78;100.00;99759.78;5016704;28;20098;-83
2022/11/23 07:35:31;;;;;;;58.67;28.43;;;;;;;0.80;100.00;99767.59;5018401;28;20041;-81
2022/11/23 07:37:58;;;;;;;66.47;29.70;;;;;;;0.86;100.00;99770.22;5033457;28;20045;-83
2022/11/23 07:40:25;;;;;;;65.37;28.60;;;;;;;0.79;100.00;99768.44;5023327;28;20102;-84
2022/11/23 07:42:52;;;;;;;59.80;27.30;;;;;;;0.84;100.00;99783.22;5036662;28;20413;-82
2022/11/23 07:45:18;;;;;;;64.67;29.83;;;;;;;0.85;100.00;99768.50;5054818;28;20094;-84
2022/11/23 07:47:45;;;;;;;59.07;27.00;;;;;;;0.78;100.00;99777.97;5047105;28;20459;-87
2022/11/23 07:50:12;;;;;;;62.90;27.37;;;;;;;0.91;100.00;99771.09;5056207;28;20489;-81
2022/11/23 07:52:40;;;;;;;63.27;25.67;;;;;;;0.76;100.00;99773.66;5058916;28;20502;-80
2022/11/23 07:55:07;;;;;;;60.30;26.43;;;;;;;0.96;100.00;99772.00;5056821;28;20059;-81
2022/11/23 07:57:33;;;;;;;57.53;27.33;;;;;;;1.01;100.00;99777.19;5044064;28;20065;-80
2022/11/23 08:00:00;;;;;;;58.10;25.77;;;;;;;1.17;100.00;99780.72;5043727;28;20050;-80
2022/11/23 08:02:26;;;;;;;58.00;26.27;;;;;;;1.26;100.00;99784.25;5057455;28;20105;-83
2022/11/23 08:04:54;;;;;;;62.37;28.47;;;;;;;1.31;100.00;99795.53;5038702;28;20044;-81
2022/11/23 08:07:20;;;;;;;48.73;25.03;;;;;;;1.34;100.00;99781.63;5038072;28;20063;-81
2022/11/23 08:09:47;;;;;;;48.77;24.53;;;;;;;1.30;100.00;99770.38;5034169;28;20064;-80
2022/11/23 08:12:14;;;;;;;55.93;25.50;;;;;;;1.27;100.00;99775.56;5059887;28;20068;-81
2022/11/23 08:14:41;;;;;;;58.73;26.47;;;;;;;1.50;100.00;99778.22;5061831;28;20037;-80
2022/11/23 08:17:07;;;;;;;55.43;25.40;;;;;;;1.53;100.00;99786.03;5042181;28;20032;-80
2022/11/23 08:19:34;;;;;;;52.60;24.77;;;;;;;1.62;100.00;99779.97;5082128;28;20040;-82
2022/11/23 08:22:01;;;;;;;53.30;25.40;;;;;;;1.71;100.00;99782.59;5044978;28;20044;-81
2022/11/23 08:24:27;;;;;;;54.93;25.53;;;;;;;1.75;100.00;99786.94;5044271;28;20062;-80
2022/11/23 08:26:55;;;;;;;58.00;25.90;;;;;;;1.72;100.00;99786.94;5060353;28;20044;-80
2022/11/23 08:29:21;;;;;;;60.00;26.47;;;;;;;1.79;100.00;99785.22;5051403;28;20071;-80
2022/11/23 08:31:48;;;;;;;51.30;24.50;;;;;;;1.74;100.00;99789.53;5013148;28;20041;-80
2022/11/23 08:34:16;;;;;;;51.53;25.10;;;;;;;1.84;100.00;99789.53;5062906;28;20485;-81
2022/11/23 08:36:44;;;;;;;55.20;25.17;;;;;;;1.95;100.00;99794.78;5065342;28;20041;-81
2022/11/23 08:39:13;;;;;;;51.93;23.60;;;;;;;1.87;100.00;99794.78;5074766;28;20131;-82
2022/11/23 08:41:40;;;;;;;51.13;24.10;;;;;;;1.82;100.00;99803.44;5055579;28;20040;-83
2022/11/23 08:44:11;;;;;;;54.53;24.43;;;;;;;1.74;100.00;99793.00;5055344;28;20054;-83
2022/11/23 08:46:38;;;;;;;45.93;22.37;;;;;;;1.79;100.00;99801.72;5057163;28;20099;-80
2022/11/23 08:49:06;;;;;;;48.77;23.47;;;;;;;1.67;100.00;99799.06;5033001;28;20036;-80
2022/11/23 08:51:33;;;;;;;48.37;23.27;;;;;;;1.74;100.00;99795.59;5061428;28;20102;-81
2022/11/23 08:53:59;;;;;;;45.77;22.73;;;;;;;1.73;100.00;99806.91;5041597;28;20041;-80
2022/11/23 08:56:26;;;;;;;49.90;23.10;;;;;;;1.62;100.00;99812.09;5072269;28;20787;-80
2022/11/23 08:58:53;;;;;;;52.17;23.13;;;;;;;1.76;100.00;99803.41;5063672;28;20041;-81
2022/11/23 09:01:20;;;;;;;49.67;22.97;;;;;;;1.60;100.00;99807.75;5073824;28;20033;-81
2022/11/23 09:03:47;;;;;;;47.40;21.63;;;;;;;1.66;100.00;99800.81;5056942;28;20048;-80
2022/11/23 09:06:14;;;;;;;47.47;22.23;;;;;;;1.57;100.00;99799.91;5066536;28;20045;-80
2022/11/23 09:08:41;;;;;;;46.10;22.00;;;;;;;1.56;100.00;99803.41;5086999;28;20047;-80
2022/11/23 09:11:11;;;;;;;44.37;21.77;;;;;;;1.54;100.00;99800.78;5083866;28;20044;-81
2022/11/23 09:13:38;;;;;;;46.70;22.63;;;;;;;1.54;100.00;99800.78;5044502;28;20086;-81
2022/11/23 09:16:06;;;;;;;45.60;21.77;;;;;;;1.40;100.00;99802.47;5068517;28;20052;-81
2022/11/23 09:18:34;;;;;;;47.37;23.50;;;;;;;1.54;100.00;99803.41;5040393;28;20059;-80
2022/11/23 09:21:04;;;;;;;52.97;24.17;;;;;;;1.58;100.00;99812.06;5126521;22;20037;-84
2022/11/23 09:23:31;;;;;;;46.83;23.67;;;;;;;1.80;100.00;99815.59;5040603;28;20039;-83
2022/11/23 09:25:59;;;;;;;44.13;21.73;;;;;;;1.75;100.00;99812.09;5055990;28;20420;-82
2022/11/23 09:28:28;;;;;;;47.20;22.33;;;;;;;1.64;100.00;99807.75;5039842;28;20055;-82
2022/11/23 09:30:56;;;;;;;46.23;21.83;;;;;;;1.54;100.00;99805.13;5022315;28;20497;-81
2022/11/23 09:33:23;;;;;;;51.17;23.70;;;;;;;1.63;100.00;99797.34;5003785;28;20144;-82
2022/11/23 09:36:01;;;;;;;49.93;22.63;;;;;;;1.74;100.00;99803.41;5003900;28;20095;-83
2022/11/23 09:38:28;;;;;;;47.50;23.20;;;;;;;1.84;100.00;99801.69;5005825;28;20063;-83
2022/11/23 09:41:46;;;;;;;45.40;21.60;;;;;;;1.76;100.00;99803.41;5029181;28;20036;-83
2022/11/23 09:44:51;;;;;;;55.60;24.33;;;;;;;1.89;100.00;99798.22;5056335;28;20086;-81
2022/11/23 09:47:52;;;;;;;46.97;24.33;;;;;;;1.89;100.00;99798.22;5056552;28;20076;-80
2022/11/23 09:50:27;;;;;;;44.93;22.13;;;;;;;1.93;100.00;99794.78;5021100;28;20072;-80
2022/11/23 09:52:54;;;;;;;47.10;23.20;;;;;;;1.83;100.00;99793.00;5022175;28;20044;-81
2022/11/23 09:55:35;;;;;;;46.20;23.53;;;;;;;1.92;100.00;99797.34;5055348;28;20052;-80
2022/11/23 09:58:04;;;;;;;47.53;24.03;;;;;;;1.92;100.00;99795.63;5072760;28;20697;-80
2022/11/23 10:00:37;;;;;;;49.67;23.17;;;;;;;2.01;100.00;99793.88;5056098;28;20120;-80
2022/11/23 10:03:04;;;;;;;44.00;21.57;;;;;;;1.85;100.00;99793.91;5039235;28;20115;-81
2022/11/23 10:05:34;;;;;;;54.13;23.13;;;;;;;2.03;100.00;99789.56;5038837;28;20053;-80
2022/11/23 10:08:08;;;;;;;46.87;25.07;;;;;;;2.07;100.00;99786.94;5022213;28;20044;-81
2022/11/23 10:10:50;;;;;;;46.38;21.65;;;;;;;1.91;100.00;99787.81;5038569;28;20028;-81
2022/11/23 10:14:07;;;;;;;44.90;21.87;;;;;;;2.11;100.00;99782.63;5055326;28;20502;-80
2022/11/23 10:16:49;;;;;;;41.07;20.17;;;;;;;2.36;100.00;99778.25;5013270;28;20127;-81
2022/11/23 10:19:24;;;;;;;48.83;23.07;;;;;;;2.29;100.00;99794.78;5013340;28;20041;-81
2022/11/23 10:22:09;;;;;;;48.10;23.00;;;;;;;2.31;100.00;99786.06;5027229;28;20071;-81
2022/11/23 10:24:48;;;;;;;120.30;60.23;;;;;;;2.26;100.00;99782.59;5022255;28;20106;-81
2022/11/23 10:27:17;;;;;;;53.10;26.53;;;;;;;2.42;100.00;99786.03;5048215;28;20689;-81
2022/11/23 10:29:44;;;;;;;50.17;25.50;;;;;;;2.38;100.00;99779.13;5019888;28;20555;-80
2022/11/23 10:32:26;;;;;;;47.87;23.43;;;;;;;2.47;100.00;99779.09;5068500;28;20045;-79
2022/11/23 10:34:59;;;;;;;48.27;26.17;;;;;;;2.53;100.00;99779.09;5040447;28;20113;-81
2022/11/23 10:37:26;;;;;;;46.27;22.90;;;;;;;2.53;100.00;99784.31;5038851;28;20045;-81
2022/11/23 10:39:53;;;;;;;46.13;22.23;;;;;;;2.52;100.00;99780.84;5055590;28;20064;-80
2022/11/23 10:42:36;;;;;;;44.67;21.07;;;;;;;2.65;100.00;99781.66;5037824;28;20036;-82
2022/11/23 10:45:04;;;;;;;41.67;21.27;;;;;;;2.53;100.00;99773.88;5044361;28;20094;-83
2022/11/23 10:47:37;;;;;;;43.53;23.47;;;;;;;2.56;100.00;99783.44;5021289;28;20048;-83
2022/11/23 10:50:39;;;;;;;65.60;37.53;;;;;;;2.88;100.00;99772.91;5069772;28;20029;-82
2022/11/23 10:53:25;;;;;;;44.67;25.63;;;;;;;2.87;100.00;99768.56;5068771;28;20036;-83
2022/11/23 10:55:53;;;;;;;51.70;32.10;;;;;;;2.68;100.00;99773.81;5037886;28;20037;-82
2022/11/23 10:58:33;;;;;;;48.60;28.17;;;;;;;2.86;100.00;99780.75;5054423;28;20047;-82
2022/11/23 11:01:06;;;;;;;44.03;20.73;;;;;;;2.67;100.00;99774.69;5021479;28;20075;-83
2022/11/23 11:03:34;;;;;;;38.77;20.60;;;;;;;2.64;100.00;99782.53;5020730;28;20074;-82
2022/11/23 11:06:02;;;;;;;46.80;23.43;;;;;;;2.95;100.00;99774.63;5036347;28;20401;-83
2022/11/23 11:08:54;;;;;;;39.73;21.73;;;;;;;3.08;100.00;99774.53;5011423;28;20052;-83
2022/11/23 11:11:25;;;;;;;43.30;23.75;;;;;;;3.08;100.00;99781.50;5032574;28;20047;-82
2022/11/23 11:14:04;;;;;;;39.60;20.13;;;;;;;3.08;100.00;99771.06;5037247;28;20044;-83
2022/11/23 11:16:34;;;;;;;42.80;24.43;;;;;;;3.29;100.00;99767.50;5052152;28;20064;-83
2022/11/23 11:19:34;;;;;;;34.90;19.30;;;;;;;3.21;100.00;99770.16;5052476;28;20087;-83
2022/11/23 11:22:04;;;;;;;36.17;19.70;;;;;;;3.13;100.00;99774.53;5004402;28;20109;-83
2022/11/23 11:24:35;;;;;;;36.20;19.83;;;;;;;2.86;100.00;99766.81;5036958;28;20036;-82
2022/11/23 11:27:14;;;;;;;42.17;19.00;;;;;;;3.06;100.00;99760.66;5033520;28;20067;-82